sensor_id;sensor_type;location;lat;lon;timestamp;P1;durP1;ratioP1;P2;durP2;ratioP2
51184;SDS011;37248;59.350;18.050;2023-03-01T00:02:12;7.60;;;2.30;;
51184;SDS011;37248;59.350;18.050;2023-03-01T00:04:37;7.07;;;2.30;;
51184;SDS011;37248;59.350;18.050;2023-03-01T00:07:02;7.03;;;2.80;;
51184;SDS011;37248;59.350;18.050;2023-03-01T00:09:28;7.93;;;2.53;;
51184;SDS011;37248;59.350;18.050;2023-03-01T00:11:53;5.97;;;2.30;;
51184;SDS011;37248;59.350;18.050;2023-03-01T00:14:18;5.67;;;2.30;;
51184;SDS011;37248;59.350;18.050;2023-03-01T00:16:44;5.00;;;2.17;;
51184;SDS011;37248;59.350;18.050;2023-03-01T00:19:11;4.33;;;1.80;;
51184;SDS011;37248;59.350;18.050;2023-03-01T00:21:37;8.15;;;2.30;;
51184;SDS011;37248;59.350;18.050;2023-03-01T00:24:02;5.80;;;2.00;;
51184;SDS011;37248;59.350;18.050;2023-03-01T00:26:27;5.57;;;2.13;;
51184;SDS011;37248;59.350;18.050;2023-03-01T00:28:53;4.73;;;2.00;;
51184;SDS011;37248;59.350;18.050;2023-03-01T00:31:21;5.67;;;2.10;;
51184;SDS011;37248;59.350;18.050;2023-03-01T00:33:47;5.63;;;2.08;;
51184;SDS011;37248;59.350;18.050;2023-03-01T00:36:13;4.67;;;1.77;;
51184;SDS011;37248;59.350;18.050;2023-03-01T00:38:40;5.90;;;2.00;;
51184;SDS011;37248;59.350;18.050;2023-03-01T00:41:10;7.43;;;2.17;;
51184;SDS011;37248;59.350;18.050;2023-03-01T00:43:36;5.55;;;1.98;;
51184;SDS011;37248;59.350;18.050;2023-03-01T00:46:02;4.17;;;2.03;;
51184;SDS011;37248;59.350;18.050;2023-03-01T00:48:28;5.87;;;2.03;;
51184;SDS011;37248;59.350;18.050;2023-03-01T00:50:53;3.20;;;1.70;;
51184;SDS011;37248;59.350;18.050;2023-03-01T00:53:18;8.23;;;2.13;;
51184;SDS011;37248;59.350;18.050;2023-03-01T00:55:43;4.07;;;1.73;;
51184;SDS011;37248;59.350;18.050;2023-03-01T00:58:09;3.60;;;1.90;;
51184;SDS011;37248;59.350;18.050;2023-03-01T01:00:34;3.33;;;1.60;;
51184;SDS011;37248;59.350;18.050;2023-03-01T01:02:59;7.07;;;2.20;;
51184;SDS011;37248;59.350;18.050;2023-03-01T01:05:24;6.13;;;1.70;;
51184;SDS011;37248;59.350;18.050;2023-03-01T01:07:49;5.67;;;2.10;;
51184;SDS011;37248;59.350;18.050;2023-03-01T01:10:15;5.53;;;2.00;;
51184;SDS011;37248;59.350;18.050;2023-03-01T01:12:42;4.43;;;2.00;;
51184;SDS011;37248;59.350;18.050;2023-03-01T01:15:07;5.27;;;1.97;;
51184;SDS011;37248;59.350;18.050;2023-03-01T01:17:33;3.87;;;1.70;;
51184;SDS011;37248;59.350;18.050;2023-03-01T01:19:58;4.77;;;1.70;;
51184;SDS011;37248;59.350;18.050;2023-03-01T01:22:23;3.57;;;1.60;;
51184;SDS011;37248;59.350;18.050;2023-03-01T01:24:48;3.70;;;1.50;;
51184;SDS011;37248;59.350;18.050;2023-03-01T01:27:14;5.07;;;1.40;;
51184;SDS011;37248;59.350;18.050;2023-03-01T01:29:39;4.27;;;1.50;;
51184;SDS011;37248;59.350;18.050;2023-03-01T01:32:04;5.57;;;1.77;;
51184;SDS011;37248;59.350;18.050;2023-03-01T01:34:30;3.47;;;1.20;;
51184;SDS011;37248;59.350;18.050;2023-03-01T01:36:55;4.00;;;1.70;;
51184;SDS011;37248;59.350;18.050;2023-03-01T01:39:21;3.95;;;1.60;;
51184;SDS011;37248;59.350;18.050;2023-03-01T01:41:46;3.75;;;1.55;;
51184;SDS011;37248;59.350;18.050;2023-03-01T01:46:41;2.75;;;1.33;;
51184;SDS011;37248;59.350;18.050;2023-03-01T01:49:15;4.18;;;1.40;;
51184;SDS011;37248;59.350;18.050;2023-03-01T01:51:42;3.35;;;1.40;;
51184;SDS011;37248;59.350;18.050;2023-03-01T01:54:12;3.63;;;1.50;;
51184;SDS011;37248;59.350;18.050;2023-03-01T01:56:39;2.90;;;1.42;;
51184;SDS011;37248;59.350;18.050;2023-03-01T01:59:06;4.13;;;1.40;;
51184;SDS011;37248;59.350;18.050;2023-03-01T02:01:31;2.77;;;1.30;;
51184;SDS011;37248;59.350;18.050;2023-03-01T02:03:57;2.87;;;1.17;;
51184;SDS011;37248;59.350;18.050;2023-03-01T02:08:48;4.53;;;1.33;;
51184;SDS011;37248;59.350;18.050;2023-03-01T02:11:14;2.63;;;1.10;;
51184;SDS011;37248;59.350;18.050;2023-03-01T02:13:39;3.60;;;1.40;;
51184;SDS011;37248;59.350;18.050;2023-03-01T02:16:08;2.42;;;1.13;;
51184;SDS011;37248;59.350;18.050;2023-03-01T02:18:33;2.47;;;1.17;;
51184;SDS011;37248;59.350;18.050;2023-03-01T02:21:08;3.20;;;1.10;;
51184;SDS011;37248;59.350;18.050;2023-03-01T02:23:36;3.80;;;1.48;;
51184;SDS011;37248;59.350;18.050;2023-03-01T02:26:05;4.70;;;1.43;;
51184;SDS011;37248;59.350;18.050;2023-03-01T02:28:34;7.15;;;1.60;;
51184;SDS011;37248;59.350;18.050;2023-03-01T02:31:00;6.07;;;1.40;;
51184;SDS011;37248;59.350;18.050;2023-03-01T02:33:44;7.63;;;1.27;;
51184;SDS011;37248;59.350;18.050;2023-03-01T02:36:12;3.85;;;1.48;;
51184;SDS011;37248;59.350;18.050;2023-03-01T02:38:39;4.45;;;1.23;;
51184;SDS011;37248;59.350;18.050;2023-03-01T02:41:05;4.50;;;1.30;;
51184;SDS011;37248;59.350;18.050;2023-03-01T02:43:31;7.95;;;1.20;;
51184;SDS011;37248;59.350;18.050;2023-03-01T02:45:58;6.47;;;1.60;;
51184;SDS011;37248;59.350;18.050;2023-03-01T02:48:24;7.00;;;1.33;;
51184;SDS011;37248;59.350;18.050;2023-03-01T02:51:06;7.50;;;1.40;;
51184;SDS011;37248;59.350;18.050;2023-03-01T02:55:59;9.70;;;1.50;;
51184;SDS011;37248;59.350;18.050;2023-03-01T02:58:25;8.70;;;1.35;;
51184;SDS011;37248;59.350;18.050;2023-03-01T03:00:50;6.37;;;1.30;;
51184;SDS011;37248;59.350;18.050;2023-03-01T03:03:19;4.13;;;1.10;;
51184;SDS011;37248;59.350;18.050;2023-03-01T03:05:45;5.77;;;1.23;;
51184;SDS011;37248;59.350;18.050;2023-03-01T03:08:11;5.57;;;1.10;;
51184;SDS011;37248;59.350;18.050;2023-03-01T03:10:40;7.90;;;1.40;;
51184;SDS011;37248;59.350;18.050;2023-03-01T03:13:10;3.22;;;1.10;;
51184;SDS011;37248;59.350;18.050;2023-03-01T03:15:35;5.18;;;1.30;;
51184;SDS011;37248;59.350;18.050;2023-03-01T03:18:01;3.87;;;1.00;;
51184;SDS011;37248;59.350;18.050;2023-03-01T03:20:27;6.03;;;1.30;;
51184;SDS011;37248;59.350;18.050;2023-03-01T03:22:54;3.67;;;1.00;;
51184;SDS011;37248;59.350;18.050;2023-03-01T03:25:19;4.75;;;1.13;;
51184;SDS011;37248;59.350;18.050;2023-03-01T03:27:46;4.60;;;1.23;;
51184;SDS011;37248;59.350;18.050;2023-03-01T03:30:14;2.90;;;0.98;;
51184;SDS011;37248;59.350;18.050;2023-03-01T03:32:41;2.73;;;0.90;;
51184;SDS011;37248;59.350;18.050;2023-03-01T03:35:08;3.72;;;1.05;;
51184;SDS011;37248;59.350;18.050;2023-03-01T03:37:37;2.17;;;0.90;;
51184;SDS011;37248;59.350;18.050;2023-03-01T03:40:21;2.97;;;1.00;;
51184;SDS011;37248;59.350;18.050;2023-03-01T03:42:46;5.33;;;1.03;;
51184;SDS011;37248;59.350;18.050;2023-03-01T03:45:13;3.30;;;0.95;;
51184;SDS011;37248;59.350;18.050;2023-03-01T03:47:38;3.03;;;0.90;;
51184;SDS011;37248;59.350;18.050;2023-03-01T03:50:03;2.67;;;1.00;;
51184;SDS011;37248;59.350;18.050;2023-03-01T03:52:28;2.90;;;0.80;;
51184;SDS011;37248;59.350;18.050;2023-03-01T03:54:54;2.27;;;1.00;;
51184;SDS011;37248;59.350;18.050;2023-03-01T03:57:19;1.77;;;0.70;;
51184;SDS011;37248;59.350;18.050;2023-03-01T03:59:46;3.87;;;0.80;;
51184;SDS011;37248;59.350;18.050;2023-03-01T04:02:11;2.20;;;0.80;;
51184;SDS011;37248;59.350;18.050;2023-03-01T04:04:36;2.07;;;0.73;;
51184;SDS011;37248;59.350;18.050;2023-03-01T04:07:01;3.17;;;0.90;;
51184;SDS011;37248;59.350;18.050;2023-03-01T04:09:27;2.67;;;0.80;;
51184;SDS011;37248;59.350;18.050;2023-03-01T04:11:52;2.70;;;0.83;;
51184;SDS011;37248;59.350;18.050;2023-03-01T04:14:17;1.80;;;0.60;;
51184;SDS011;37248;59.350;18.050;2023-03-01T04:16:42;2.47;;;0.77;;
51184;SDS011;37248;59.350;18.050;2023-03-01T04:19:08;1.85;;;0.88;;
51184;SDS011;37248;59.350;18.050;2023-03-01T04:21:34;3.80;;;0.80;;
51184;SDS011;37248;59.350;18.050;2023-03-01T04:24:01;1.90;;;0.80;;
51184;SDS011;37248;59.350;18.050;2023-03-01T04:26:28;5.88;;;0.85;;
51184;SDS011;37248;59.350;18.050;2023-03-01T04:28:53;3.38;;;0.77;;
51184;SDS011;37248;59.350;18.050;2023-03-01T04:31:19;3.40;;;0.90;;
51184;SDS011;37248;59.350;18.050;2023-03-01T04:36:12;2.20;;;0.83;;
51184;SDS011;37248;59.350;18.050;2023-03-01T04:38:38;2.40;;;0.95;;
51184;SDS011;37248;59.350;18.050;2023-03-01T04:41:07;2.17;;;0.70;;
51184;SDS011;37248;59.350;18.050;2023-03-01T04:43:33;2.50;;;1.00;;
51184;SDS011;37248;59.350;18.050;2023-03-01T04:46:01;4.80;;;0.80;;
51184;SDS011;37248;59.350;18.050;2023-03-01T04:48:28;1.65;;;0.70;;
51184;SDS011;37248;59.350;18.050;2023-03-01T04:50:53;3.23;;;0.90;;
51184;SDS011;37248;59.350;18.050;2023-03-01T04:53:18;1.10;;;0.57;;
51184;SDS011;37248;59.350;18.050;2023-03-01T04:55:43;2.50;;;0.93;;
51184;SDS011;37248;59.350;18.050;2023-03-01T04:58:09;2.07;;;0.60;;
51184;SDS011;37248;59.350;18.050;2023-03-01T05:00:34;2.03;;;0.82;;
51184;SDS011;37248;59.350;18.050;2023-03-01T05:03:00;2.40;;;0.67;;
51184;SDS011;37248;59.350;18.050;2023-03-01T05:05:27;3.08;;;0.90;;
51184;SDS011;37248;59.350;18.050;2023-03-01T05:07:53;1.70;;;0.70;;
51184;SDS011;37248;59.350;18.050;2023-03-01T05:10:19;2.63;;;0.80;;
51184;SDS011;37248;59.350;18.050;2023-03-01T05:12:44;4.73;;;0.80;;
51184;SDS011;37248;59.350;18.050;2023-03-01T05:15:09;5.07;;;1.00;;
51184;SDS011;37248;59.350;18.050;2023-03-01T05:17:35;5.03;;;0.63;;
51184;SDS011;37248;59.350;18.050;2023-03-01T05:20:00;4.43;;;0.80;;
51184;SDS011;37248;59.350;18.050;2023-03-01T05:22:26;8.35;;;0.82;;
51184;SDS011;37248;59.350;18.050;2023-03-01T05:24:51;8.03;;;0.97;;
51184;SDS011;37248;59.350;18.050;2023-03-01T05:27:17;4.55;;;1.10;;
51184;SDS011;37248;59.350;18.050;2023-03-01T05:29:42;5.50;;;1.00;;
51184;SDS011;37248;59.350;18.050;2023-03-01T05:32:09;3.92;;;0.90;;
51184;SDS011;37248;59.350;18.050;2023-03-01T05:34:40;5.80;;;1.03;;
51184;SDS011;37248;59.350;18.050;2023-03-01T05:37:05;8.73;;;1.40;;
51184;SDS011;37248;59.350;18.050;2023-03-01T05:39:32;4.70;;;0.80;;
51184;SDS011;37248;59.350;18.050;2023-03-01T05:41:58;4.07;;;0.70;;
51184;SDS011;37248;59.350;18.050;2023-03-01T05:44:24;5.63;;;1.07;;
51184;SDS011;37248;59.350;18.050;2023-03-01T05:46:49;4.10;;;0.80;;
51184;SDS011;37248;59.350;18.050;2023-03-01T05:49:15;4.55;;;1.17;;
51184;SDS011;37248;59.350;18.050;2023-03-01T05:51:40;7.23;;;1.10;;
51184;SDS011;37248;59.350;18.050;2023-03-01T05:54:06;5.90;;;0.90;;
51184;SDS011;37248;59.350;18.050;2023-03-01T05:56:33;3.40;;;0.80;;
51184;SDS011;37248;59.350;18.050;2023-03-01T05:58:59;5.60;;;1.15;;
51184;SDS011;37248;59.350;18.050;2023-03-01T06:01:24;4.30;;;0.87;;
51184;SDS011;37248;59.350;18.050;2023-03-01T06:03:49;2.90;;;0.87;;
51184;SDS011;37248;59.350;18.050;2023-03-01T06:06:14;4.50;;;0.80;;
51184;SDS011;37248;59.350;18.050;2023-03-01T06:08:40;3.53;;;0.80;;
51184;SDS011;37248;59.350;18.050;2023-03-01T06:11:05;2.70;;;0.70;;
51184;SDS011;37248;59.350;18.050;2023-03-01T06:13:32;1.90;;;0.60;;
51184;SDS011;37248;59.350;18.050;2023-03-01T06:15:57;2.97;;;0.90;;
51184;SDS011;37248;59.350;18.050;2023-03-01T06:18:23;4.43;;;0.90;;
51184;SDS011;37248;59.350;18.050;2023-03-01T06:20:54;2.57;;;0.90;;
51184;SDS011;37248;59.350;18.050;2023-03-01T06:23:20;3.92;;;0.70;;
51184;SDS011;37248;59.350;18.050;2023-03-01T06:25:45;3.45;;;0.80;;
51184;SDS011;37248;59.350;18.050;2023-03-01T06:28:10;2.63;;;0.80;;
51184;SDS011;37248;59.350;18.050;2023-03-01T06:30:35;5.00;;;1.10;;
51184;SDS011;37248;59.350;18.050;2023-03-01T06:33:01;3.87;;;1.00;;
51184;SDS011;37248;59.350;18.050;2023-03-01T06:35:28;6.27;;;1.30;;
51184;SDS011;37248;59.350;18.050;2023-03-01T06:37:57;8.98;;;1.33;;
51184;SDS011;37248;59.350;18.050;2023-03-01T06:40:22;9.30;;;1.23;;
51184;SDS011;37248;59.350;18.050;2023-03-01T06:42:48;6.50;;;1.33;;
51184;SDS011;37248;59.350;18.050;2023-03-01T06:45:17;6.88;;;1.27;;
51184;SDS011;37248;59.350;18.050;2023-03-01T06:47:43;9.68;;;1.10;;
51184;SDS011;37248;59.350;18.050;2023-03-01T06:50:08;6.17;;;1.07;;
51184;SDS011;37248;59.350;18.050;2023-03-01T06:52:34;7.93;;;1.23;;
51184;SDS011;37248;59.350;18.050;2023-03-01T06:54:59;7.00;;;1.73;;
51184;SDS011;37248;59.350;18.050;2023-03-01T06:57:24;6.13;;;1.20;;
51184;SDS011;37248;59.350;18.050;2023-03-01T06:59:49;9.60;;;2.17;;
51184;SDS011;37248;59.350;18.050;2023-03-01T07:02:15;10.73;;;3.60;;
51184;SDS011;37248;59.350;18.050;2023-03-01T07:04:40;13.03;;;5.63;;
51184;SDS011;37248;59.350;18.050;2023-03-01T07:07:06;17.67;;;8.50;;
51184;SDS011;37248;59.350;18.050;2023-03-01T07:09:31;19.85;;;9.50;;
51184;SDS011;37248;59.350;18.050;2023-03-01T07:11:56;21.17;;;8.30;;
51184;SDS011;37248;59.350;18.050;2023-03-01T07:14:22;17.17;;;9.27;;
51184;SDS011;37248;59.350;18.050;2023-03-01T07:16:49;14.83;;;9.23;;
51184;SDS011;37248;59.350;18.050;2023-03-01T07:19:14;16.90;;;9.43;;
51184;SDS011;37248;59.350;18.050;2023-03-01T07:21:40;16.33;;;9.10;;
51184;SDS011;37248;59.350;18.050;2023-03-01T07:24:06;14.93;;;9.13;;
51184;SDS011;37248;59.350;18.050;2023-03-01T07:26:31;14.43;;;8.48;;
51184;SDS011;37248;59.350;18.050;2023-03-01T07:28:58;13.73;;;8.53;;
51184;SDS011;37248;59.350;18.050;2023-03-01T07:31:24;14.77;;;7.57;;
51184;SDS011;37248;59.350;18.050;2023-03-01T07:33:49;18.27;;;8.18;;
51184;SDS011;37248;59.350;18.050;2023-03-01T07:36:15;13.63;;;7.43;;
51184;SDS011;37248;59.350;18.050;2023-03-01T07:38:40;13.43;;;6.90;;
51184;SDS011;37248;59.350;18.050;2023-03-01T07:41:05;11.45;;;7.07;;
51184;SDS011;37248;59.350;18.050;2023-03-01T07:43:31;12.23;;;6.23;;
51184;SDS011;37248;59.350;18.050;2023-03-01T07:46:00;14.17;;;6.17;;
51184;SDS011;37248;59.350;18.050;2023-03-01T07:48:25;11.10;;;6.30;;
51184;SDS011;37248;59.350;18.050;2023-03-01T07:50:50;11.70;;;5.43;;
51184;SDS011;37248;59.350;18.050;2023-03-01T07:53:16;9.40;;;5.13;;
51184;SDS011;37248;59.350;18.050;2023-03-01T07:55:41;12.37;;;5.30;;
51184;SDS011;37248;59.350;18.050;2023-03-01T07:58:06;11.00;;;5.37;;
51184;SDS011;37248;59.350;18.050;2023-03-01T08:00:32;9.53;;;4.77;;
51184;SDS011;37248;59.350;18.050;2023-03-01T08:03:00;13.40;;;5.33;;
51184;SDS011;37248;59.350;18.050;2023-03-01T08:05:26;9.63;;;4.80;;
51184;SDS011;37248;59.350;18.050;2023-03-01T08:07:51;9.23;;;4.28;;
51184;SDS011;37248;59.350;18.050;2023-03-01T08:10:16;12.73;;;4.83;;
51184;SDS011;37248;59.350;18.050;2023-03-01T08:12:41;11.53;;;4.00;;
51184;SDS011;37248;59.350;18.050;2023-03-01T08:15:07;7.13;;;3.53;;
51184;SDS011;37248;59.350;18.050;2023-03-01T08:17:32;8.40;;;4.03;;
51184;SDS011;37248;59.350;18.050;2023-03-01T08:19:58;11.27;;;3.53;;
51184;SDS011;37248;59.350;18.050;2023-03-01T08:22:23;9.00;;;3.83;;
51184;SDS011;37248;59.350;18.050;2023-03-01T08:24:48;7.80;;;3.83;;
51184;SDS011;37248;59.350;18.050;2023-03-01T08:27:14;7.03;;;3.43;;
51184;SDS011;37248;59.350;18.050;2023-03-01T08:29:40;5.95;;;3.10;;
51184;SDS011;37248;59.350;18.050;2023-03-01T08:32:05;6.67;;;3.37;;
51184;SDS011;37248;59.350;18.050;2023-03-01T08:34:30;10.67;;;3.60;;
51184;SDS011;37248;59.350;18.050;2023-03-01T08:36:56;68.38;;;6.47;;
51184;SDS011;37248;59.350;18.050;2023-03-01T08:39:21;71.25;;;6.53;;
51184;SDS011;37248;59.350;18.050;2023-03-01T08:41:47;44.00;;;5.73;;
51184;SDS011;37248;59.350;18.050;2023-03-01T08:44:13;36.20;;;4.82;;
51184;SDS011;37248;59.350;18.050;2023-03-01T08:46:39;28.17;;;4.85;;
51184;SDS011;37248;59.350;18.050;2023-03-01T08:49:09;40.58;;;4.47;;
51184;SDS011;37248;59.350;18.050;2023-03-01T08:51:35;28.90;;;4.90;;
51184;SDS011;37248;59.350;18.050;2023-03-01T08:54:04;35.77;;;4.87;;
51184;SDS011;37248;59.350;18.050;2023-03-01T08:56:29;23.17;;;3.90;;
51184;SDS011;37248;59.350;18.050;2023-03-01T08:58:55;24.70;;;4.10;;
51184;SDS011;37248;59.350;18.050;2023-03-01T09:01:20;18.13;;;3.70;;
51184;SDS011;37248;59.350;18.050;2023-03-01T09:03:45;28.10;;;3.70;;
51184;SDS011;37248;59.350;18.050;2023-03-01T09:06:11;22.45;;;3.63;;
51184;SDS011;37248;59.350;18.050;2023-03-01T09:08:37;18.30;;;3.70;;
51184;SDS011;37248;59.350;18.050;2023-03-01T09:11:03;24.48;;;3.80;;
51184;SDS011;37248;59.350;18.050;2023-03-01T09:13:29;13.37;;;3.80;;
51184;SDS011;37248;59.350;18.050;2023-03-01T09:15:56;17.77;;;3.40;;
51184;SDS011;37248;59.350;18.050;2023-03-01T09:18:21;16.20;;;3.05;;
51184;SDS011;37248;59.350;18.050;2023-03-01T09:20:47;12.63;;;3.60;;
51184;SDS011;37248;59.350;18.050;2023-03-01T09:23:12;13.50;;;2.77;;
51184;SDS011;37248;59.350;18.050;2023-03-01T09:25:37;8.40;;;2.80;;
51184;SDS011;37248;59.350;18.050;2023-03-01T09:28:02;12.87;;;3.20;;
51184;SDS011;37248;59.350;18.050;2023-03-01T09:30:28;19.02;;;3.17;;
51184;SDS011;37248;59.350;18.050;2023-03-01T09:32:55;14.18;;;3.47;;
51184;SDS011;37248;59.350;18.050;2023-03-01T09:35:21;16.73;;;3.35;;
51184;SDS011;37248;59.350;18.050;2023-03-01T09:37:47;32.72;;;4.60;;
51184;SDS011;37248;59.350;18.050;2023-03-01T09:40:16;30.85;;;4.03;;
51184;SDS011;37248;59.350;18.050;2023-03-01T09:42:46;33.50;;;4.50;;
51184;SDS011;37248;59.350;18.050;2023-03-01T09:47:51;34.33;;;4.83;;
51184;SDS011;37248;59.350;18.050;2023-03-01T09:50:18;28.30;;;4.53;;
51184;SDS011;37248;59.350;18.050;2023-03-01T09:52:52;21.98;;;4.13;;
51184;SDS011;37248;59.350;18.050;2023-03-01T09:55:26;24.70;;;4.60;;
51184;SDS011;37248;59.350;18.050;2023-03-01T10:00:37;24.63;;;3.90;;
51184;SDS011;37248;59.350;18.050;2023-03-01T10:06:13;24.13;;;4.83;;
51184;SDS011;37248;59.350;18.050;2023-03-01T10:11:01;22.88;;;4.18;;
51184;SDS011;37248;59.350;18.050;2023-03-01T10:16:06;22.17;;;4.07;;
51184;SDS011;37248;59.350;18.050;2023-03-01T10:18:35;18.42;;;3.90;;
51184;SDS011;37248;59.350;18.050;2023-03-01T10:21:05;15.23;;;3.78;;
51184;SDS011;37248;59.350;18.050;2023-03-01T10:23:33;12.20;;;3.33;;
51184;SDS011;37248;59.350;18.050;2023-03-01T10:31:14;21.38;;;3.88;;
51184;SDS011;37248;59.350;18.050;2023-03-01T10:33:42;8.05;;;2.97;;
51184;SDS011;37248;59.350;18.050;2023-03-01T10:36:08;15.37;;;3.20;;
51184;SDS011;37248;59.350;18.050;2023-03-01T10:38:52;12.83;;;3.10;;
51184;SDS011;37248;59.350;18.050;2023-03-01T10:41:19;11.40;;;2.90;;
51184;SDS011;37248;59.350;18.050;2023-03-01T10:43:45;14.65;;;3.17;;
51184;SDS011;37248;59.350;18.050;2023-03-01T10:49:00;9.88;;;3.53;;
51184;SDS011;37248;59.350;18.050;2023-03-01T10:51:30;17.73;;;3.40;;
51184;SDS011;37248;59.350;18.050;2023-03-01T10:53:55;14.57;;;3.40;;
51184;SDS011;37248;59.350;18.050;2023-03-01T10:56:20;11.10;;;3.27;;
51184;SDS011;37248;59.350;18.050;2023-03-01T10:58:59;12.87;;;3.10;;
51184;SDS011;37248;59.350;18.050;2023-03-01T11:01:42;15.13;;;3.33;;
51184;SDS011;37248;59.350;18.050;2023-03-01T11:06:34;12.20;;;2.97;;
51184;SDS011;37248;59.350;18.050;2023-03-01T11:09:15;10.03;;;3.23;;
51184;SDS011;37248;59.350;18.050;2023-03-01T11:11:41;8.18;;;2.70;;
51184;SDS011;37248;59.350;18.050;2023-03-01T11:16:38;10.20;;;3.17;;
51184;SDS011;37248;59.350;18.050;2023-03-01T11:21:39;10.50;;;2.88;;
51184;SDS011;37248;59.350;18.050;2023-03-01T11:24:08;8.77;;;2.72;;
51184;SDS011;37248;59.350;18.050;2023-03-01T11:26:36;9.27;;;2.73;;
51184;SDS011;37248;59.350;18.050;2023-03-01T11:29:06;10.95;;;2.50;;
51184;SDS011;37248;59.350;18.050;2023-03-01T11:31:32;8.63;;;2.73;;
51184;SDS011;37248;59.350;18.050;2023-03-01T11:34:15;8.10;;;2.60;;
51184;SDS011;37248;59.350;18.050;2023-03-01T11:41:42;9.75;;;2.40;;
51184;SDS011;37248;59.350;18.050;2023-03-01T11:44:26;9.70;;;2.70;;
51184;SDS011;37248;59.350;18.050;2023-03-01T11:47:00;7.07;;;2.83;;
51184;SDS011;37248;59.350;18.050;2023-03-01T12:40:26;3.63;;;2.00;;
51184;SDS011;37248;59.350;18.050;2023-03-01T12:43:07;4.85;;;1.98;;
51184;SDS011;37248;59.350;18.050;2023-03-01T12:48:33;5.90;;;2.17;;
51184;SDS011;37248;59.350;18.050;2023-03-01T12:51:03;4.22;;;1.70;;
51184;SDS011;37248;59.350;18.050;2023-03-01T12:53:31;4.25;;;1.90;;
51184;SDS011;37248;59.350;18.050;2023-03-01T12:56:16;6.07;;;1.90;;
51184;SDS011;37248;59.350;18.050;2023-03-01T12:58:49;6.20;;;2.33;;
51184;SDS011;37248;59.350;18.050;2023-03-01T13:06:25;8.60;;;1.80;;
51184;SDS011;37248;59.350;18.050;2023-03-01T13:09:04;5.88;;;1.90;;
51184;SDS011;37248;59.350;18.050;2023-03-01T13:11:31;5.67;;;1.87;;
51184;SDS011;37248;59.350;18.050;2023-03-01T13:16:42;5.15;;;1.55;;
51184;SDS011;37248;59.350;18.050;2023-03-01T13:19:12;5.32;;;1.88;;
51184;SDS011;37248;59.350;18.050;2023-03-01T13:21:39;4.77;;;1.80;;
51184;SDS011;37248;59.350;18.050;2023-03-01T13:24:22;5.47;;;1.97;;
51184;SDS011;37248;59.350;18.050;2023-03-01T13:27:22;3.72;;;1.50;;
51184;SDS011;37248;59.350;18.050;2023-03-01T13:29:44;2.90;;;1.60;;
51184;SDS011;37248;59.350;18.050;2023-03-01T13:32:23;5.78;;;1.55;;
51184;SDS011;37248;59.350;18.050;2023-03-01T13:34:53;3.63;;;1.50;;
51184;SDS011;37248;59.350;18.050;2023-03-01T13:37:20;5.63;;;1.90;;
51184;SDS011;37248;59.350;18.050;2023-03-01T13:39:45;4.53;;;1.80;;
51184;SDS011;37248;59.350;18.050;2023-03-01T13:42:45;7.85;;;2.10;;
51184;SDS011;37248;59.350;18.050;2023-03-01T13:45:04;4.97;;;2.10;;
51184;SDS011;37248;59.350;18.050;2023-03-01T13:47:30;7.25;;;2.10;;
51184;SDS011;37248;59.350;18.050;2023-03-01T13:50:01;4.83;;;1.80;;
51184;SDS011;37248;59.350;18.050;2023-03-01T13:54:52;4.80;;;2.27;;
51184;SDS011;37248;59.350;18.050;2023-03-01T13:57:20;5.63;;;2.10;;
51184;SDS011;37248;59.350;18.050;2023-03-01T13:59:47;4.43;;;2.20;;
51184;SDS011;37248;59.350;18.050;2023-03-01T14:02:13;4.33;;;2.23;;
51184;SDS011;37248;59.350;18.050;2023-03-01T14:04:38;4.35;;;2.20;;
51184;SDS011;37248;59.350;18.050;2023-03-01T14:07:12;4.40;;;2.40;;
51184;SDS011;37248;59.350;18.050;2023-03-01T14:09:40;3.67;;;2.30;;
51184;SDS011;37248;59.350;18.050;2023-03-01T14:15:04;5.03;;;2.47;;
51184;SDS011;37248;59.350;18.050;2023-03-01T14:17:45;4.53;;;2.35;;
51184;SDS011;37248;59.350;18.050;2023-03-01T14:20:14;4.25;;;2.38;;
51184;SDS011;37248;59.350;18.050;2023-03-01T14:22:41;5.93;;;2.70;;
51184;SDS011;37248;59.350;18.050;2023-03-01T14:25:18;6.30;;;2.70;;
51184;SDS011;37248;59.350;18.050;2023-03-01T14:27:44;5.53;;;2.77;;
51184;SDS011;37248;59.350;18.050;2023-03-01T14:30:18;5.17;;;2.80;;
51184;SDS011;37248;59.350;18.050;2023-03-01T14:32:52;5.07;;;2.63;;
51184;SDS011;37248;59.350;18.050;2023-03-01T14:35:21;7.82;;;2.60;;
51184;SDS011;37248;59.350;18.050;2023-03-01T14:37:47;8.30;;;2.90;;
51184;SDS011;37248;59.350;18.050;2023-03-01T14:40:47;4.03;;;2.58;;
51184;SDS011;37248;59.350;18.050;2023-03-01T14:43:13;6.00;;;2.50;;
51184;SDS011;37248;59.350;18.050;2023-03-01T14:45:42;5.25;;;2.40;;
51184;SDS011;37248;59.350;18.050;2023-03-01T14:48:11;6.73;;;2.33;;
51184;SDS011;37248;59.350;18.050;2023-03-01T14:50:40;4.20;;;2.70;;
51184;SDS011;37248;59.350;18.050;2023-03-01T14:53:06;5.27;;;2.30;;
51184;SDS011;37248;59.350;18.050;2023-03-01T14:55:33;3.53;;;2.30;;
51184;SDS011;37248;59.350;18.050;2023-03-01T14:58:02;7.97;;;2.58;;
51184;SDS011;37248;59.350;18.050;2023-03-01T15:00:28;7.97;;;2.70;;
51184;SDS011;37248;59.350;18.050;2023-03-01T15:02:55;14.70;;;3.10;;
51184;SDS011;37248;59.350;18.050;2023-03-01T15:05:26;9.88;;;2.75;;
51184;SDS011;37248;59.350;18.050;2023-03-01T15:07:52;10.30;;;2.70;;
51184;SDS011;37248;59.350;18.050;2023-03-01T15:10:22;9.82;;;2.60;;
51184;SDS011;37248;59.350;18.050;2023-03-01T15:12:47;6.43;;;2.25;;
51184;SDS011;37248;59.350;18.050;2023-03-01T15:17:54;9.87;;;2.60;;
51184;SDS011;37248;59.350;18.050;2023-03-01T15:20:20;8.05;;;2.38;;
51184;SDS011;37248;59.350;18.050;2023-03-01T15:22:46;12.52;;;2.90;;
51184;SDS011;37248;59.350;18.050;2023-03-01T15:25:16;9.47;;;2.37;;
51184;SDS011;37248;59.350;18.050;2023-03-01T15:27:46;8.30;;;2.30;;
51184;SDS011;37248;59.350;18.050;2023-03-01T15:30:17;9.23;;;2.50;;
51184;SDS011;37248;59.350;18.050;2023-03-01T15:32:43;10.02;;;2.30;;
51184;SDS011;37248;59.350;18.050;2023-03-01T15:37:53;9.82;;;2.47;;
51184;SDS011;37248;59.350;18.050;2023-03-01T15:40:20;11.43;;;2.13;;
51184;SDS011;37248;59.350;18.050;2023-03-01T15:42:46;10.07;;;2.30;;
51184;SDS011;37248;59.350;18.050;2023-03-01T15:47:50;6.93;;;2.30;;
51184;SDS011;37248;59.350;18.050;2023-03-01T15:50:23;9.60;;;2.58;;
51184;SDS011;37248;59.350;18.050;2023-03-01T15:52:48;9.32;;;2.67;;
51184;SDS011;37248;59.350;18.050;2023-03-01T15:55:18;12.80;;;2.47;;
51184;SDS011;37248;59.350;18.050;2023-03-01T15:57:44;4.82;;;2.20;;
51184;SDS011;37248;59.350;18.050;2023-03-01T16:00:10;6.67;;;2.47;;
51184;SDS011;37248;59.350;18.050;2023-03-01T16:02:39;6.80;;;2.50;;
51184;SDS011;37248;59.350;18.050;2023-03-01T16:05:05;10.27;;;2.58;;
51184;SDS011;37248;59.350;18.050;2023-03-01T16:07:30;10.73;;;3.08;;
51184;SDS011;37248;59.350;18.050;2023-03-01T16:09:56;8.68;;;3.10;;
51184;SDS011;37248;59.350;18.050;2023-03-01T16:12:21;9.40;;;3.05;;
51184;SDS011;37248;59.350;18.050;2023-03-01T16:14:46;10.67;;;2.97;;
51184;SDS011;37248;59.350;18.050;2023-03-01T16:17:13;11.20;;;3.58;;
51184;SDS011;37248;59.350;18.050;2023-03-01T16:19:38;10.85;;;3.35;;
51184;SDS011;37248;59.350;18.050;2023-03-01T16:22:04;9.97;;;3.20;;
51184;SDS011;37248;59.350;18.050;2023-03-01T16:24:29;11.17;;;3.10;;
51184;SDS011;37248;59.350;18.050;2023-03-01T16:26:55;8.80;;;2.97;;
51184;SDS011;37248;59.350;18.050;2023-03-01T16:29:20;11.02;;;3.20;;
51184;SDS011;37248;59.350;18.050;2023-03-01T16:31:45;9.23;;;2.90;;